KLRO/LRO METAR and TAF weather

Enter ICAO airport designator
Station Type Date Time Source
KLRO METAR 2022/01/26 20:35 UTC NOAA

KLRO 262035Z AUTO VRB05KT 9SM FEW022 11/05 A3019 RMK AO2


Station Type Date Time Source
KLRO Decoded METAR 2022/01/26 20:35 UTC NOAA

Station name not available
Jan 26, 2022 - 03:35 PM EST / 2022.01.26 2035 UTC
Wind: Variable at 6 MPH (5 KT):0
Visibility: 9 mile(s):0
Sky conditions: mostly clear
Temperature: 51 F (11 C)
Dew Point: 41 F (5 C)
Relative Humidity: 66%
Pressure (altimeter): 30.19 in. Hg (1022 hPa)
ob: KLRO 262035Z AUTO VRB05KT 9SM FEW022 11/05 A3019 RMK AO2
cycle: 20

Station Type Date Time Source
KLRO TAF UTC NOAA

Error!

Example: see airport list